Kizbel — 2HJL5 — position and weather

sailwx.info

Track history (hours):
 
Tides and Currents Weather Stations Pressure Air Temp Water Temp Dewpoint Dewpoint Depression Visibility Wind Speed Wind Dir Waves Ship Positions

Kizbel

Last reported at 2017-Dec-07 09:38 UTC. Time now 2018-Feb-24 10:28 UTC.
Position N 25°59' W 079°49'.
Warning: this ship's position is months out of date.

Type: Pleasure craft. MMSI: 235104155.

Date/timePositionNaut miles runAvg speedWind from/ knotsBaromVisibWave heightAir tempDewpointWater temp
2017-Dec-07 09:38N 25°59' W 079°49'1 8.6
2017-Dec-07 09:30N 25°60' W 079°50'4 8.7
2017-Dec-07 09:00N 26°02' W 079°55'5 9.1
2017-Dec-07 08:30N 26°04' W 079°59'510.4
2017-Dec-07 07:59N 26°06' W 080°05'2 1.2
2017-Dec-07 06:19N 26°06' W 080°07'0 0.0
2017-Dec-07 05:52N 26°06' W 080°07'0 0.0
2017-Dec-07 05:22N 26°06' W 080°07'0 0.0
2017-Dec-07 04:52N 26°06' W 080°07'0 0.0
2017-Dec-07 04:19N 26°06' W 080°07'0 0.0
2017-Dec-07 03:52N 26°06' W 080°07'0 0.0
2017-Dec-07 03:22N 26°06' W 080°07'0 0.0
2017-Dec-07 02:52N 26°06' W 080°07'0 0.0
2017-Dec-07 02:19N 26°06' W 080°07'0 0.0
2017-Dec-07 01:55N 26°06' W 080°07'0 0.0
2017-Dec-07 01:25N 26°06' W 080°07'0 0.0
2017-Dec-07 00:52N 26°06' W 080°07'0 0.0
2017-Dec-07 00:25N 26°06' W 080°07'0 0.0
2017-Dec-06 23:55N 26°06' W 080°07'0 0.0
2017-Dec-06 23:22N 26°06' W 080°07'0 0.0
2017-Dec-06 22:58N 26°06' W 080°07'0 0.0
2017-Dec-06 22:25N 26°06' W 080°07'0 0.0
2017-Dec-06 21:55N 26°06' W 080°07'0 0.0
2017-Dec-06 21:28N 26°06' W 080°07'0 0.0
2017-Dec-06 20:58N 26°06' W 080°07'  
2017-Nov-30 16:25N 26°05' W 080°11'0 0.2
2017-Nov-30 15:56N 26°05' W 080°11'0 0.0
2017-Nov-30 14:38N 26°05' W 080°11'0 0.0
2017-Nov-30 14:11N 26°05' W 080°11'0 0.1
2017-Nov-30 13:56N 26°05' W 080°11'0 0.0
2017-Nov-30 13:26N 26°05' W 080°11'0 0.0
2017-Nov-30 12:59N 26°05' W 080°11'0 0.0
2017-Nov-30 12:29N 26°05' W 080°11'0 0.0
2017-Nov-30 11:59N 26°05' W 080°11'0 0.0
2017-Nov-30 11:29N 26°05' W 080°11'0 0.0
2017-Nov-30 10:59N 26°05' W 080°11'0 0.0
2017-Nov-30 10:29N 26°05' W 080°11'0 0.0
2017-Nov-30 09:59N 26°05' W 080°11'0 0.0
2017-Nov-30 09:29N 26°05' W 080°11'0 0.0
2017-Nov-30 08:59N 26°05' W 080°11'0 0.0
2017-Nov-30 08:29N 26°05' W 080°11'0 0.0
2017-Nov-30 07:50N 26°05' W 080°11'0 0.0
2017-Nov-30 07:29N 26°05' W 080°11'0 0.0
2017-Nov-30 06:59N 26°05' W 080°11'0 0.0
2017-Nov-30 06:20N 26°05' W 080°11'0 0.0
2017-Nov-30 05:35N 26°05' W 080°11'0 0.0
2017-Nov-30 05:23N 26°05' W 080°11'0 0.0
2017-Nov-30 04:53N 26°05' W 080°11'0 0.0
2017-Nov-30 04:20N 26°05' W 080°11'0 0.0
2017-Nov-30 03:53N 26°05' W 080°11'0 0.0
2017-Nov-30 03:23N 26°05' W 080°11'0 0.0
2017-Nov-30 02:53N 26°05' W 080°11'0 0.0
2017-Nov-30 02:26N 26°05' W 080°11'0 0.0
2017-Nov-30 01:56N 26°05' W 080°11'0 0.0
2017-Nov-30 01:26N 26°05' W 080°11'0 0.0
2017-Nov-30 00:56N 26°05' W 080°11'0 0.0
2017-Nov-30 00:26N 26°05' W 080°11'0 0.0
2017-Nov-29 23:59N 26°05' W 080°11'0 0.0
2017-Nov-29 23:29N 26°05' W 080°11'0 0.0
2017-Nov-29 22:56N 26°05' W 080°11'0 0.0
2017-Nov-29 22:26N 26°05' W 080°11'0 0.0
2017-Nov-29 21:59N 26°05' W 080°11'0 0.0
2017-Nov-29 21:29N 26°05' W 080°11'0 0.0
2017-Nov-29 20:56N 26°05' W 080°11'0 0.0
2017-Nov-29 20:29N 26°05' W 080°11'0 0.0
2017-Nov-29 19:47N 26°05' W 080°11'0 0.0
2017-Nov-29 19:29N 26°05' W 080°11'0 0.0
2017-Nov-29 18:59N 26°05' W 080°11'0 0.0
2017-Nov-29 18:29N 26°05' W 080°11'0 0.0
2017-Nov-29 17:59N 26°05' W 080°11'0 0.0
2017-Nov-29 17:29N 26°05' W 080°11'0 0.0
2017-Nov-29 16:50N 26°05' W 080°11'0 0.0
2017-Nov-29 16:20N 26°05' W 080°11'0 0.0
2017-Nov-29 15:50N 26°05' W 080°11'0 0.0
2017-Nov-29 15:17N 26°05' W 080°11'0 0.0
2017-Nov-29 14:53N 26°05' W 080°11'0 0.0
2017-Nov-29 14:23N 26°05' W 080°11'0 0.0
2017-Nov-29 13:53N 26°05' W 080°11'0 0.0
2017-Nov-29 13:23N 26°05' W 080°11'0 0.0
2017-Nov-29 12:53N 26°05' W 080°11'0 0.0
2017-Nov-29 12:26N 26°05' W 080°11'0 0.0
2017-Nov-29 11:56N 26°05' W 080°11'0 0.0
2017-Nov-29 11:26N 26°05' W 080°11'0 0.0
2017-Nov-29 10:53N 26°05' W 080°11'0 0.0
2017-Nov-29 10:26N 26°05' W 080°11'0 0.0
2017-Nov-29 09:56N 26°05' W 080°11'0 0.0
2017-Nov-29 09:29N 26°05' W 080°11'0 0.0
2017-Nov-29 08:59N 26°05' W 080°11'0 0.0
2017-Nov-29 08:29N 26°05' W 080°11'0 0.0
2017-Nov-29 07:59N 26°05' W 080°11'0 0.0
2017-Nov-29 07:29N 26°05' W 080°11'0 0.0
2017-Nov-29 06:59N 26°05' W 080°11'0 0.0
2017-Nov-29 06:26N 26°05' W 080°11'0 0.0
2017-Nov-29 05:59N 26°05' W 080°11'0 0.0
2017-Nov-29 05:29N 26°05' W 080°11'0 0.0
2017-Nov-29 04:59N 26°05' W 080°11'0 0.0
2017-Nov-29 04:20N 26°05' W 080°11'0 0.0
2017-Nov-29 03:59N 26°05' W 080°11'0 0.0
2017-Nov-29 03:29N 26°05' W 080°11'0 0.0
2017-Nov-29 02:50N 26°05' W 080°11'0 0.0
2017-Nov-29 02:20N 26°05' W 080°11'0 0.0
2017-Nov-29 01:50N 26°05' W 080°11'0 0.0
2017-Nov-29 01:23N 26°05' W 080°11'0 0.0
2017-Nov-29 00:53N 26°05' W 080°11'0 0.0
2017-Nov-29 00:08N 26°05' W 080°11'0 0.0
2017-Nov-28 23:53N 26°05' W 080°11'0 0.0
2017-Nov-28 23:23N 26°05' W 080°11'0 0.0
2017-Nov-28 22:56N 26°05' W 080°11'0 0.0
2017-Nov-28 22:26N 26°05' W 080°11'0 0.0
2017-Nov-28 21:56N 26°05' W 080°11'0 0.0
2017-Nov-28 21:26N 26°05' W 080°11'0 0.0
2017-Nov-28 20:56N 26°05' W 080°11'0 0.0
2017-Nov-28 20:26N 26°05' W 080°11'0 0.0
2017-Nov-28 19:59N 26°05' W 080°11'0 0.0
2017-Nov-28 19:29N 26°05' W 080°11'0 0.0
2017-Nov-28 18:59N 26°05' W 080°11'0 0.0
2017-Nov-28 18:29N 26°05' W 080°11'0 0.0
2017-Nov-28 17:56N 26°05' W 080°11'0 0.0
2017-Nov-28 17:26N 26°05' W 080°11'0 0.0
2017-Nov-28 16:59N 26°05' W 080°11'0 0.0
2017-Nov-28 16:26N 26°05' W 080°11'0 0.0
2017-Nov-28 15:59N 26°05' W 080°11'0 0.0
2017-Nov-28 14:59N 26°05' W 080°11'0 0.0
2017-Nov-28 14:29N 26°05' W 080°11'0 0.0
2017-Nov-28 13:59N 26°05' W 080°11'0 0.0
2017-Nov-28 13:29N 26°05' W 080°11'0 0.0
2017-Nov-28 12:50N 26°05' W 080°11'0 0.0
2017-Nov-28 12:20N 26°05' W 080°11'0 0.0
2017-Nov-28 11:47N 26°05' W 080°11'0 0.0
2017-Nov-28 11:23N 26°05' W 080°11'0 0.0
2017-Nov-28 10:53N 26°05' W 080°11'0 0.0
2017-Nov-28 10:23N 26°05' W 080°11'0 0.0
2017-Nov-28 09:53N 26°05' W 080°11'0 0.0
2017-Nov-28 09:23N 26°05' W 080°11'0 0.0
2017-Nov-28 08:56N 26°05' W 080°11'0 0.0
2017-Nov-28 08:23N 26°05' W 080°11'0 0.0
2017-Nov-28 07:56N 26°05' W 080°11'0 0.0
2017-Nov-28 07:26N 26°05' W 080°11'0 0.0
2017-Nov-28 06:56N 26°05' W 080°11'0 0.0
2017-Nov-28 06:29N 26°05' W 080°11'0 0.0
2017-Nov-28 05:59N 26°05' W 080°11'0 0.0
2017-Nov-28 05:29N 26°05' W 080°11'0 0.0
2017-Nov-28 04:29N 26°05' W 080°11'0 0.0
2017-Nov-28 03:56N 26°05' W 080°11'0 0.0
2017-Nov-28 03:29N 26°05' W 080°11'0 0.0
2017-Nov-28 02:56N 26°05' W 080°11'0 0.0
2017-Nov-28 02:29N 26°05' W 080°11'0 0.0
2017-Nov-28 01:59N 26°05' W 080°11'0 0.0
2017-Nov-28 01:29N 26°05' W 080°11'0 0.0
2017-Nov-28 00:59N 26°05' W 080°11'0 0.0
2017-Nov-28 00:20N 26°05' W 080°11'0 0.0
2017-Nov-27 23:59N 26°05' W 080°11'0 0.0
2017-Nov-27 23:29N 26°05' W 080°11'0 0.0
2017-Nov-27 22:50N 26°05' W 080°11'0 0.0
2017-Nov-27 22:20N 26°05' W 080°11'0 0.0
2017-Nov-27 21:47N 26°05' W 080°11'0 0.0
2017-Nov-27 21:20N 26°05' W 080°11'0 0.0
2017-Nov-27 20:53N 26°05' W 080°11'0 0.0
2017-Nov-27 20:23N 26°05' W 080°11'0 0.0
2017-Nov-27 19:53N 26°05' W 080°11'0 0.0
2017-Nov-27 19:23N 26°05' W 080°11'0 0.0
2017-Nov-27 18:56N 26°05' W 080°11'0 0.0
2017-Nov-27 18:26N 26°05' W 080°11'0 0.0
2017-Nov-27 17:56N 26°05' W 080°11'0 0.0
2017-Nov-27 17:26N 26°05' W 080°11'0 0.0
2017-Nov-27 16:56N 26°05' W 080°11'0 0.0
2017-Nov-27 16:14N 26°05' W 080°11'0 0.0
2017-Nov-27 15:59N 26°05' W 080°11'0 0.0
2017-Nov-27 15:29N 26°05' W 080°11'0 0.0
2017-Nov-27 14:56N 26°05' W 080°11'0 0.0
2017-Nov-27 14:29N 26°05' W 080°11'0 0.0
2017-Nov-27 13:59N 26°05' W 080°11'0 0.0
2017-Nov-27 13:29N 26°05' W 080°11'0 0.0
2017-Nov-27 12:59N 26°05' W 080°11'0 0.0
2017-Nov-27 12:29N 26°05' W 080°11'0 0.0
2017-Nov-27 11:59N 26°05' W 080°11'0 0.0
2017-Nov-27 11:29N 26°05' W 080°11'0 0.0
2017-Nov-27 10:59N 26°05' W 080°11'0 0.0
2017-Nov-27 10:29N 26°05' W 080°11'0 0.0
2017-Nov-27 09:59N 26°05' W 080°11'  
Track history (hours):
 
Tides and Currents Weather Stations Pressure Air Temp Water Temp Dewpoint Dewpoint Depression Visibility Wind Speed Wind Dir Waves Ship Positions

Kizbel

Last reported at 2017-Dec-07 09:38 UTC. Time now 2018-Feb-24 10:28 UTC.
Position N 25°59' W 079°49'.
Warning: this ship's position is months out of date.

Type: Pleasure craft. MMSI: 235104155.

Date/timePositionNaut miles runAvg speedWind from/ knotsBaromVisibWave heightAir tempDewpointWater temp
2017-Dec-07 09:38N 25°59' W 079°49'1 8.6
2017-Dec-07 09:30N 25°60' W 079°50'4 8.7
2017-Dec-07 09:00N 26°02' W 079°55'5 9.1
2017-Dec-07 08:30N 26°04' W 079°59'510.4
2017-Dec-07 07:59N 26°06' W 080°05'2 1.2
2017-Dec-07 06:19N 26°06' W 080°07'0 0.0
2017-Dec-07 05:52N 26°06' W 080°07'0 0.0
2017-Dec-07 05:22N 26°06' W 080°07'0 0.0
2017-Dec-07 04:52N 26°06' W 080°07'0 0.0
2017-Dec-07 04:19N 26°06' W 080°07'0 0.0
2017-Dec-07 03:52N 26°06' W 080°07'0 0.0
2017-Dec-07 03:22N 26°06' W 080°07'0 0.0
2017-Dec-07 02:52N 26°06' W 080°07'0 0.0
2017-Dec-07 02:19N 26°06' W 080°07'0 0.0
2017-Dec-07 01:55N 26°06' W 080°07'0 0.0
2017-Dec-07 01:25N 26°06' W 080°07'0 0.0
2017-Dec-07 00:52N 26°06' W 080°07'0 0.0
2017-Dec-07 00:25N 26°06' W 080°07'0 0.0
2017-Dec-06 23:55N 26°06' W 080°07'0 0.0
2017-Dec-06 23:22N 26°06' W 080°07'0 0.0
2017-Dec-06 22:58N 26°06' W 080°07'0 0.0
2017-Dec-06 22:25N 26°06' W 080°07'0 0.0
2017-Dec-06 21:55N 26°06' W 080°07'0 0.0
2017-Dec-06 21:28N 26°06' W 080°07'0 0.0
2017-Dec-06 20:58N 26°06' W 080°07'  
2017-Nov-30 16:25N 26°05' W 080°11'0 0.2
2017-Nov-30 15:56N 26°05' W 080°11'0 0.0
2017-Nov-30 14:38N 26°05' W 080°11'0 0.0
2017-Nov-30 14:11N 26°05' W 080°11'0 0.1
2017-Nov-30 13:56N 26°05' W 080°11'0 0.0
2017-Nov-30 13:26N 26°05' W 080°11'0 0.0
2017-Nov-30 12:59N 26°05' W 080°11'0 0.0
2017-Nov-30 12:29N 26°05' W 080°11'0 0.0
2017-Nov-30 11:59N 26°05' W 080°11'0 0.0
2017-Nov-30 11:29N 26°05' W 080°11'0 0.0
2017-Nov-30 10:59N 26°05' W 080°11'0 0.0
2017-Nov-30 10:29N 26°05' W 080°11'0 0.0
2017-Nov-30 09:59N 26°05' W 080°11'0 0.0
2017-Nov-30 09:29N 26°05' W 080°11'0 0.0
2017-Nov-30 08:59N 26°05' W 080°11'0 0.0
2017-Nov-30 08:29N 26°05' W 080°11'0 0.0
2017-Nov-30 07:50N 26°05' W 080°11'0 0.0
2017-Nov-30 07:29N 26°05' W 080°11'0 0.0
2017-Nov-30 06:59N 26°05' W 080°11'0 0.0
2017-Nov-30 06:20N 26°05' W 080°11'0 0.0
2017-Nov-30 05:35N 26°05' W 080°11'0 0.0
2017-Nov-30 05:23N 26°05' W 080°11'0 0.0
2017-Nov-30 04:53N 26°05' W 080°11'0 0.0
2017-Nov-30 04:20N 26°05' W 080°11'0 0.0
2017-Nov-30 03:53N 26°05' W 080°11'0 0.0
2017-Nov-30 03:23N 26°05' W 080°11'0 0.0
2017-Nov-30 02:53N 26°05' W 080°11'0 0.0
2017-Nov-30 02:26N 26°05' W 080°11'0 0.0
2017-Nov-30 01:56N 26°05' W 080°11'0 0.0
2017-Nov-30 01:26N 26°05' W 080°11'0 0.0
2017-Nov-30 00:56N 26°05' W 080°11'0 0.0
2017-Nov-30 00:26N 26°05' W 080°11'0 0.0
2017-Nov-29 23:59N 26°05' W 080°11'0 0.0
2017-Nov-29 23:29N 26°05' W 080°11'0 0.0
2017-Nov-29 22:56N 26°05' W 080°11'0 0.0
2017-Nov-29 22:26N 26°05' W 080°11'0 0.0
2017-Nov-29 21:59N 26°05' W 080°11'0 0.0
2017-Nov-29 21:29N 26°05' W 080°11'0 0.0
2017-Nov-29 20:56N 26°05' W 080°11'0 0.0
2017-Nov-29 20:29N 26°05' W 080°11'0 0.0
2017-Nov-29 19:47N 26°05' W 080°11'0 0.0
2017-Nov-29 19:29N 26°05' W 080°11'0 0.0
2017-Nov-29 18:59N 26°05' W 080°11'0 0.0
2017-Nov-29 18:29N 26°05' W 080°11'0 0.0
2017-Nov-29 17:59N 26°05' W 080°11'0 0.0
2017-Nov-29 17:29N 26°05' W 080°11'0 0.0
2017-Nov-29 16:50N 26°05' W 080°11'0 0.0
2017-Nov-29 16:20N 26°05' W 080°11'0 0.0
2017-Nov-29 15:50N 26°05' W 080°11'0 0.0
2017-Nov-29 15:17N 26°05' W 080°11'0 0.0
2017-Nov-29 14:53N 26°05' W 080°11'0 0.0
2017-Nov-29 14:23N 26°05' W 080°11'0 0.0
2017-Nov-29 13:53N 26°05' W 080°11'0 0.0
2017-Nov-29 13:23N 26°05' W 080°11'0 0.0
2017-Nov-29 12:53N 26°05' W 080°11'0 0.0
2017-Nov-29 12:26N 26°05' W 080°11'0 0.0
2017-Nov-29 11:56N 26°05' W 080°11'0 0.0
2017-Nov-29 11:26N 26°05' W 080°11'0 0.0
2017-Nov-29 10:53N 26°05' W 080°11'0 0.0
2017-Nov-29 10:26N 26°05' W 080°11'0 0.0
2017-Nov-29 09:56N 26°05' W 080°11'0 0.0
2017-Nov-29 09:29N 26°05' W 080°11'0 0.0
2017-Nov-29 08:59N 26°05' W 080°11'0 0.0
2017-Nov-29 08:29N 26°05' W 080°11'0 0.0
2017-Nov-29 07:59N 26°05' W 080°11'0 0.0
2017-Nov-29 07:29N 26°05' W 080°11'0 0.0
2017-Nov-29 06:59N 26°05' W 080°11'0 0.0
2017-Nov-29 06:26N 26°05' W 080°11'0 0.0
2017-Nov-29 05:59N 26°05' W 080°11'0 0.0
2017-Nov-29 05:29N 26°05' W 080°11'0 0.0
2017-Nov-29 04:59N 26°05' W 080°11'0 0.0
2017-Nov-29 04:20N 26°05' W 080°11'0 0.0
2017-Nov-29 03:59N 26°05' W 080°11'0 0.0
2017-Nov-29 03:29N 26°05' W 080°11'0 0.0
2017-Nov-29 02:50N 26°05' W 080°11'0 0.0
2017-Nov-29 02:20N 26°05' W 080°11'0 0.0
2017-Nov-29 01:50N 26°05' W 080°11'0 0.0
2017-Nov-29 01:23N 26°05' W 080°11'0 0.0
2017-Nov-29 00:53N 26°05' W 080°11'0 0.0
2017-Nov-29 00:08N 26°05' W 080°11'0 0.0
2017-Nov-28 23:53N 26°05' W 080°11'0 0.0
2017-Nov-28 23:23N 26°05' W 080°11'0 0.0
2017-Nov-28 22:56N 26°05' W 080°11'0 0.0
2017-Nov-28 22:26N 26°05' W 080°11'0 0.0
2017-Nov-28 21:56N 26°05' W 080°11'0 0.0
2017-Nov-28 21:26N 26°05' W 080°11'0 0.0
2017-Nov-28 20:56N 26°05' W 080°11'0 0.0
2017-Nov-28 20:26N 26°05' W 080°11'0 0.0
2017-Nov-28 19:59N 26°05' W 080°11'0 0.0
2017-Nov-28 19:29N 26°05' W 080°11'0 0.0
2017-Nov-28 18:59N 26°05' W 080°11'0 0.0
2017-Nov-28 18:29N 26°05' W 080°11'0 0.0
2017-Nov-28 17:56N 26°05' W 080°11'0 0.0
2017-Nov-28 17:26N 26°05' W 080°11'0 0.0
2017-Nov-28 16:59N 26°05' W 080°11'0 0.0
2017-Nov-28 16:26N 26°05' W 080°11'0 0.0
2017-Nov-28 15:59N 26°05' W 080°11'0 0.0
2017-Nov-28 14:59N 26°05' W 080°11'0 0.0
2017-Nov-28 14:29N 26°05' W 080°11'0 0.0
2017-Nov-28 13:59N 26°05' W 080°11'0 0.0
2017-Nov-28 13:29N 26°05' W 080°11'0 0.0
2017-Nov-28 12:50N 26°05' W 080°11'0 0.0
2017-Nov-28 12:20N 26°05' W 080°11'0 0.0
2017-Nov-28 11:47N 26°05' W 080°11'0 0.0
2017-Nov-28 11:23N 26°05' W 080°11'0 0.0
2017-Nov-28 10:53N 26°05' W 080°11'0 0.0
2017-Nov-28 10:23N 26°05' W 080°11'0 0.0
2017-Nov-28 09:53N 26°05' W 080°11'0 0.0
2017-Nov-28 09:23N 26°05' W 080°11'0 0.0
2017-Nov-28 08:56N 26°05' W 080°11'0 0.0
2017-Nov-28 08:23N 26°05' W 080°11'0 0.0
2017-Nov-28 07:56N 26°05' W 080°11'0 0.0
2017-Nov-28 07:26N 26°05' W 080°11'0 0.0
2017-Nov-28 06:56N 26°05' W 080°11'0 0.0
2017-Nov-28 06:29N 26°05' W 080°11'0 0.0
2017-Nov-28 05:59N 26°05' W 080°11'0 0.0
2017-Nov-28 05:29N 26°05' W 080°11'0 0.0
2017-Nov-28 04:29N 26°05' W 080°11'0 0.0
2017-Nov-28 03:56N 26°05' W 080°11'0 0.0
2017-Nov-28 03:29N 26°05' W 080°11'0 0.0
2017-Nov-28 02:56N 26°05' W 080°11'0 0.0
2017-Nov-28 02:29N 26°05' W 080°11'0 0.0
2017-Nov-28 01:59N 26°05' W 080°11'0 0.0
2017-Nov-28 01:29N 26°05' W 080°11'0 0.0
2017-Nov-28 00:59N 26°05' W 080°11'0 0.0
2017-Nov-28 00:20N 26°05' W 080°11'0 0.0
2017-Nov-27 23:59N 26°05' W 080°11'0 0.0
2017-Nov-27 23:29N 26°05' W 080°11'0 0.0
2017-Nov-27 22:50N 26°05' W 080°11'0 0.0
2017-Nov-27 22:20N 26°05' W 080°11'0 0.0
2017-Nov-27 21:47N 26°05' W 080°11'0 0.0
2017-Nov-27 21:20N 26°05' W 080°11'0 0.0
2017-Nov-27 20:53N 26°05' W 080°11'0 0.0
2017-Nov-27 20:23N 26°05' W 080°11'0 0.0
2017-Nov-27 19:53N 26°05' W 080°11'0 0.0
2017-Nov-27 19:23N 26°05' W 080°11'0 0.0
2017-Nov-27 18:56N 26°05' W 080°11'0 0.0
2017-Nov-27 18:26N 26°05' W 080°11'0 0.0
2017-Nov-27 17:56N 26°05' W 080°11'0 0.0
2017-Nov-27 17:26N 26°05' W 080°11'0 0.0
2017-Nov-27 16:56N 26°05' W 080°11'0 0.0
2017-Nov-27 16:14N 26°05' W 080°11'0 0.0
2017-Nov-27 15:59N 26°05' W 080°11'0 0.0
2017-Nov-27 15:29N 26°05' W 080°11'0 0.0
2017-Nov-27 14:56N 26°05' W 080°11'0 0.0
2017-Nov-27 14:29N 26°05' W 080°11'0 0.0
2017-Nov-27 13:59N 26°05' W 080°11'0 0.0
2017-Nov-27 13:29N 26°05' W 080°11'0 0.0
2017-Nov-27 12:59N 26°05' W 080°11'0 0.0
2017-Nov-27 12:29N 26°05' W 080°11'0 0.0
2017-Nov-27 11:59N 26°05' W 080°11'0 0.0
2017-Nov-27 11:29N 26°05' W 080°11'0 0.0
2017-Nov-27 10:59N 26°05' W 080°11'0 0.0
2017-Nov-27 10:29N 26°05' W 080°11'0 0.0
2017-Nov-27 09:59N 26°05' W 080°11'  

Dump ship's entire track history